Terminal Aerodrome Forecast
Issued by NWS Mobile, AL

Home | Current Version | Previous Version | Text Only | Print | Product List | Glossary On
Versions: 1 2 3 4 5 6 7 8 9 10 11 12 13 14 15 16 17 18 19 20 21 22 23 24 25 26 27 28 29 30
000
FTUS44 KMOB 301737
TAFMOB
TAF
KMOB 301737Z 3018/3118 02005KT P6SM FEW040 SCT250
     FM302100 17008KT P6SM VCTS SCT035CB BKN100 BKN250
     FM310200 36003KT P6SM SCT040 SCT100
     FM311400 02007KT P6SM FEW250=

USA.gov is the U.S. government's official web portal to all federal, state and local government web resources and services.